sensor_id;sensor_type;location;lat;lon;timestamp;temperature;humidity
44215;DHT22;29884;47.450;19.124;2023-10-09T00:00:08;9.20;89.80
44215;DHT22;29884;47.450;19.124;2023-10-09T00:02:52;9.10;88.90
44215;DHT22;29884;47.450;19.124;2023-10-09T00:05:19;9.20;89.10
44215;DHT22;29884;47.450;19.124;2023-10-09T00:07:50;9.30;89.00
44215;DHT22;29884;47.450;19.124;2023-10-09T00:10:21;9.40;90.40
44215;DHT22;29884;47.450;19.124;2023-10-09T00:12:47;9.40;89.90
44215;DHT22;29884;47.450;19.124;2023-10-09T00:15:15;9.40;89.40
44215;DHT22;29884;47.450;19.124;2023-10-09T00:17:43;9.50;90.20
44215;DHT22;29884;47.450;19.124;2023-10-09T00:20:13;9.50;90.10
44215;DHT22;29884;47.450;19.124;2023-10-09T00:22:55;9.50;89.60
44215;DHT22;29884;47.450;19.124;2023-10-09T00:25:22;9.50;90.30
44215;DHT22;29884;47.450;19.124;2023-10-09T00:27:53;9.60;90.40
44215;DHT22;29884;47.450;19.124;2023-10-09T00:30:20;9.60;90.50
44215;DHT22;29884;47.450;19.124;2023-10-09T00:32:55;9.60;90.40
44215;DHT22;29884;47.450;19.124;2023-10-09T00:35:23;9.60;90.70
44215;DHT22;29884;47.450;19.124;2023-10-09T00:38:07;9.60;90.80
44215;DHT22;29884;47.450;19.124;2023-10-09T00:40:46;9.60;90.30
44215;DHT22;29884;47.450;19.124;2023-10-09T00:43:16;9.70;90.60
44215;DHT22;29884;47.450;19.124;2023-10-09T00:45:46;9.70;90.10
44215;DHT22;29884;47.450;19.124;2023-10-09T00:48:13;9.50;88.90
44215;DHT22;29884;47.450;19.124;2023-10-09T00:50:47;9.50;90.20
44215;DHT22;29884;47.450;19.124;2023-10-09T00:53:19;9.60;89.00
44215;DHT22;29884;47.450;19.124;2023-10-09T00:55:57;9.60;89.40
44215;DHT22;29884;47.450;19.124;2023-10-09T00:58:23;9.70;90.00
44215;DHT22;29884;47.450;19.124;2023-10-09T01:00:52;9.80;90.00
44215;DHT22;29884;47.450;19.124;2023-10-09T01:03:19;9.80;89.30
44215;DHT22;29884;47.450;19.124;2023-10-09T01:05:56;9.80;89.10
44215;DHT22;29884;47.450;19.124;2023-10-09T01:08:23;9.70;89.40
44215;DHT22;29884;47.450;19.124;2023-10-09T01:10:59;9.80;89.10
44215;DHT22;29884;47.450;19.124;2023-10-09T01:13:47;9.90;89.20
44215;DHT22;29884;47.450;19.124;2023-10-09T01:16:14;9.90;88.70
44215;DHT22;29884;47.450;19.124;2023-10-09T01:18:54;9.80;88.10
44215;DHT22;29884;47.450;19.124;2023-10-09T01:21:23;9.90;90.00
44215;DHT22;29884;47.450;19.124;2023-10-09T01:23:57;9.90;89.40
44215;DHT22;29884;47.450;19.124;2023-10-09T01:29:08;9.80;88.00
44215;DHT22;29884;47.450;19.124;2023-10-09T01:31:44;9.80;87.80
44215;DHT22;29884;47.450;19.124;2023-10-09T01:34:18;9.80;85.80
44215;DHT22;29884;47.450;19.124;2023-10-09T01:36:44;9.70;86.00
44215;DHT22;29884;47.450;19.124;2023-10-09T01:39:14;9.70;85.70
44215;DHT22;29884;47.450;19.124;2023-10-09T01:41:53;9.70;86.30
44215;DHT22;29884;47.450;19.124;2023-10-09T01:44:29;9.80;86.60
44215;DHT22;29884;47.450;19.124;2023-10-09T01:47:03;9.70;85.90
44215;DHT22;29884;47.450;19.124;2023-10-09T01:49:42;9.80;86.60
44215;DHT22;29884;47.450;19.124;2023-10-09T01:52:15;9.70;86.60
44215;DHT22;29884;47.450;19.124;2023-10-09T01:54:43;9.70;85.20
44215;DHT22;29884;47.450;19.124;2023-10-09T01:57:15;9.70;85.00
44215;DHT22;29884;47.450;19.124;2023-10-09T01:59:44;9.70;85.30
44215;DHT22;29884;47.450;19.124;2023-10-09T02:02:15;9.70;85.80
44215;DHT22;29884;47.450;19.124;2023-10-09T02:05:04;9.70;86.40
44215;DHT22;29884;47.450;19.124;2023-10-09T02:07:35;9.70;87.10
44215;DHT22;29884;47.450;19.124;2023-10-09T02:10:11;9.70;87.50
44215;DHT22;29884;47.450;19.124;2023-10-09T02:13:07;9.60;87.60
44215;DHT22;29884;47.450;19.124;2023-10-09T02:15:36;9.50;87.80
44215;DHT22;29884;47.450;19.124;2023-10-09T02:18:21;9.50;89.30
44215;DHT22;29884;47.450;19.124;2023-10-09T02:21:05;9.60;89.60
44215;DHT22;29884;47.450;19.124;2023-10-09T02:23:33;9.60;90.00
44215;DHT22;29884;47.450;19.124;2023-10-09T02:26:06;9.60;90.20
44215;DHT22;29884;47.450;19.124;2023-10-09T02:28:32;9.60;90.60
44215;DHT22;29884;47.450;19.124;2023-10-09T02:31:00;9.70;91.20
44215;DHT22;29884;47.450;19.124;2023-10-09T02:33:39;9.70;91.80
44215;DHT22;29884;47.450;19.124;2023-10-09T02:36:06;9.70;92.10
44215;DHT22;29884;47.450;19.124;2023-10-09T02:38:33;9.70;92.40
44215;DHT22;29884;47.450;19.124;2023-10-09T02:41:02;9.70;92.70
44215;DHT22;29884;47.450;19.124;2023-10-09T02:43:34;9.70;93.20
44215;DHT22;29884;47.450;19.124;2023-10-09T02:46:21;9.70;93.30
44215;DHT22;29884;47.450;19.124;2023-10-09T02:48:55;9.70;93.40
44215;DHT22;29884;47.450;19.124;2023-10-09T02:51:26;9.70;93.70
44215;DHT22;29884;47.450;19.124;2023-10-09T02:54:10;9.60;93.80
44215;DHT22;29884;47.450;19.124;2023-10-09T02:56:51;9.60;94.10
44215;DHT22;29884;47.450;19.124;2023-10-09T02:59:43;9.60;94.50
44215;DHT22;29884;47.450;19.124;2023-10-09T03:02:10;9.60;94.80
44215;DHT22;29884;47.450;19.124;2023-10-09T03:04:36;9.60;94.70
44215;DHT22;29884;47.450;19.124;2023-10-09T03:07:04;9.60;94.60
44215;DHT22;29884;47.450;19.124;2023-10-09T03:09:31;9.60;94.40
44215;DHT22;29884;47.450;19.124;2023-10-09T03:12:03;9.70;94.20
44215;DHT22;29884;47.450;19.124;2023-10-09T03:14:32;9.70;94.10
44215;DHT22;29884;47.450;19.124;2023-10-09T03:17:01;9.70;94.00
44215;DHT22;29884;47.450;19.124;2023-10-09T03:19:32;9.70;93.60
44215;DHT22;29884;47.450;19.124;2023-10-09T03:22:03;9.70;92.70
44215;DHT22;29884;47.450;19.124;2023-10-09T03:24:29;9.80;92.70
44215;DHT22;29884;47.450;19.124;2023-10-09T03:26:58;9.80;92.20
44215;DHT22;29884;47.450;19.124;2023-10-09T03:29:24;9.90;92.00
44215;DHT22;29884;47.450;19.124;2023-10-09T03:31:50;10.00;92.00
44215;DHT22;29884;47.450;19.124;2023-10-09T03:34:17;10.00;91.50
44215;DHT22;29884;47.450;19.124;2023-10-09T03:36:45;10.00;91.40
44215;DHT22;29884;47.450;19.124;2023-10-09T03:39:10;10.00;91.70
44215;DHT22;29884;47.450;19.124;2023-10-09T03:41:56;9.90;93.20
44215;DHT22;29884;47.450;19.124;2023-10-09T03:44:24;10.00;94.20
44215;DHT22;29884;47.450;19.124;2023-10-09T03:46:53;10.00;96.40
44215;DHT22;29884;47.450;19.124;2023-10-09T03:49:19;10.00;95.80
44215;DHT22;29884;47.450;19.124;2023-10-09T03:51:51;10.10;98.00
44215;DHT22;29884;47.450;19.124;2023-10-09T03:54:17;10.10;96.90
44215;DHT22;29884;47.450;19.124;2023-10-09T03:56:49;10.10;97.60
44215;DHT22;29884;47.450;19.124;2023-10-09T03:59:19;10.00;97.10
44215;DHT22;29884;47.450;19.124;2023-10-09T04:01:46;10.00;98.10
44215;DHT22;29884;47.450;19.124;2023-10-09T04:04:14;10.00;96.60
44215;DHT22;29884;47.450;19.124;2023-10-09T04:06:40;10.00;96.00
44215;DHT22;29884;47.450;19.124;2023-10-09T04:09:10;10.00;96.60
44215;DHT22;29884;47.450;19.124;2023-10-09T04:11:49;10.00;96.60
44215;DHT22;29884;47.450;19.124;2023-10-09T04:14:33;10.00;96.60
44215;DHT22;29884;47.450;19.124;2023-10-09T04:16:59;10.00;96.40
44215;DHT22;29884;47.450;19.124;2023-10-09T04:19:34;10.00;97.00
44215;DHT22;29884;47.450;19.124;2023-10-09T04:22:20;10.10;96.50
44215;DHT22;29884;47.450;19.124;2023-10-09T04:24:53;10.00;95.80
44215;DHT22;29884;47.450;19.124;2023-10-09T04:27:19;10.00;95.30
44215;DHT22;29884;47.450;19.124;2023-10-09T04:29:52;10.00;94.90
44215;DHT22;29884;47.450;19.124;2023-10-09T04:32:20;10.00;94.50
44215;DHT22;29884;47.450;19.124;2023-10-09T04:34:50;10.00;94.80
44215;DHT22;29884;47.450;19.124;2023-10-09T04:37:36;10.00;93.90
44215;DHT22;29884;47.450;19.124;2023-10-09T04:40:04;10.10;94.10
44215;DHT22;29884;47.450;19.124;2023-10-09T04:42:50;10.10;93.90
44215;DHT22;29884;47.450;19.124;2023-10-09T04:45:24;10.10;93.20
44215;DHT22;29884;47.450;19.124;2023-10-09T04:48:09;10.10;92.60
44215;DHT22;29884;47.450;19.124;2023-10-09T04:50:35;10.10;93.00
44215;DHT22;29884;47.450;19.124;2023-10-09T04:53:02;10.20;93.30
44215;DHT22;29884;47.450;19.124;2023-10-09T04:55:45;10.10;92.80
44215;DHT22;29884;47.450;19.124;2023-10-09T04:58:21;10.10;92.30
44215;DHT22;29884;47.450;19.124;2023-10-09T05:00:52;10.10;92.20
44215;DHT22;29884;47.450;19.124;2023-10-09T05:03:41;10.10;92.10
44215;DHT22;29884;47.450;19.124;2023-10-09T05:06:07;10.10;91.30
44215;DHT22;29884;47.450;19.124;2023-10-09T05:08:52;10.10;91.10
44215;DHT22;29884;47.450;19.124;2023-10-09T05:11:22;10.10;91.40
44215;DHT22;29884;47.450;19.124;2023-10-09T05:14:02;10.10;90.80
44215;DHT22;29884;47.450;19.124;2023-10-09T05:16:38;10.10;90.60
44215;DHT22;29884;47.450;19.124;2023-10-09T05:19:09;10.10;90.10
44215;DHT22;29884;47.450;19.124;2023-10-09T05:21:54;10.10;89.10
44215;DHT22;29884;47.450;19.124;2023-10-09T05:24:24;10.20;89.30
44215;DHT22;29884;47.450;19.124;2023-10-09T05:26:52;10.30;89.00
44215;DHT22;29884;47.450;19.124;2023-10-09T05:29:23;10.20;88.20
44215;DHT22;29884;47.450;19.124;2023-10-09T05:32:03;10.30;88.00
44215;DHT22;29884;47.450;19.124;2023-10-09T05:34:38;10.20;87.20
44215;DHT22;29884;47.450;19.124;2023-10-09T05:37:23;10.30;87.50
44215;DHT22;29884;47.450;19.124;2023-10-09T05:39:58;10.20;86.80
44215;DHT22;29884;47.450;19.124;2023-10-09T05:45:15;10.30;86.00
44215;DHT22;29884;47.450;19.124;2023-10-09T05:47:51;10.20;85.00
44215;DHT22;29884;47.450;19.124;2023-10-09T05:50:32;10.20;84.90
44215;DHT22;29884;47.450;19.124;2023-10-09T05:53:02;10.30;86.50
44215;DHT22;29884;47.450;19.124;2023-10-09T05:55:32;10.40;86.90
44215;DHT22;29884;47.450;19.124;2023-10-09T05:58:16;10.40;85.10
44215;DHT22;29884;47.450;19.124;2023-10-09T06:01:00;10.30;83.00
44215;DHT22;29884;47.450;19.124;2023-10-09T06:03:45;10.40;84.30
44215;DHT22;29884;47.450;19.124;2023-10-09T06:06:21;10.40;83.00
44215;DHT22;29884;47.450;19.124;2023-10-09T06:09:03;10.30;82.80
44215;DHT22;29884;47.450;19.124;2023-10-09T06:11:49;10.40;83.60
44215;DHT22;29884;47.450;19.124;2023-10-09T06:14:19;10.50;83.20
44215;DHT22;29884;47.450;19.124;2023-10-09T06:17:11;10.50;83.10
44215;DHT22;29884;47.450;19.124;2023-10-09T06:19:37;10.60;82.10
44215;DHT22;29884;47.450;19.124;2023-10-09T06:22:10;10.50;81.00
44215;DHT22;29884;47.450;19.124;2023-10-09T06:24:54;10.50;80.10
44215;DHT22;29884;47.450;19.124;2023-10-09T06:27:21;10.40;79.50
44215;DHT22;29884;47.450;19.124;2023-10-09T06:30:09;10.50;79.20
44215;DHT22;29884;47.450;19.124;2023-10-09T06:32:43;10.50;79.50
44215;DHT22;29884;47.450;19.124;2023-10-09T06:35:28;10.60;79.20
44215;DHT22;29884;47.450;19.124;2023-10-09T06:37:58;10.60;78.00
44215;DHT22;29884;47.450;19.124;2023-10-09T06:40:32;10.60;77.90
44215;DHT22;29884;47.450;19.124;2023-10-09T06:43:20;10.70;78.20
44215;DHT22;29884;47.450;19.124;2023-10-09T06:45:46;10.60;76.40
44215;DHT22;29884;47.450;19.124;2023-10-09T06:48:22;10.70;76.40
44215;DHT22;29884;47.450;19.124;2023-10-09T06:51:07;10.80;76.00
44215;DHT22;29884;47.450;19.124;2023-10-09T06:53:39;10.80;75.00
44215;DHT22;29884;47.450;19.124;2023-10-09T06:56:27;10.80;75.20
44215;DHT22;29884;47.450;19.124;2023-10-09T06:59:03;10.80;75.50
44215;DHT22;29884;47.450;19.124;2023-10-09T07:01:49;10.80;74.50
44215;DHT22;29884;47.450;19.124;2023-10-09T07:04:38;10.80;73.90
44215;DHT22;29884;47.450;19.124;2023-10-09T07:07:04;10.70;73.20
44215;DHT22;29884;47.450;19.124;2023-10-09T07:09:38;10.70;71.80
44215;DHT22;29884;47.450;19.124;2023-10-09T07:12:11;10.80;72.50
44215;DHT22;29884;47.450;19.124;2023-10-09T07:14:46;10.80;72.40
44215;DHT22;29884;47.450;19.124;2023-10-09T07:17:15;10.90;72.30
44215;DHT22;29884;47.450;19.124;2023-10-09T07:19:59;10.90;72.50
44215;DHT22;29884;47.450;19.124;2023-10-09T07:22:37;11.00;72.10
44215;DHT22;29884;47.450;19.124;2023-10-09T07:25:20;11.00;70.10
44215;DHT22;29884;47.450;19.124;2023-10-09T07:28:15;11.00;68.90
44215;DHT22;29884;47.450;19.124;2023-10-09T07:30:47;11.10;69.10
44215;DHT22;29884;47.450;19.124;2023-10-09T07:33:13;11.00;66.00
44215;DHT22;29884;47.450;19.124;2023-10-09T07:35:43;11.10;66.40
44215;DHT22;29884;47.450;19.124;2023-10-09T07:38:15;11.10;66.30
44215;DHT22;29884;47.450;19.124;2023-10-09T07:40:46;11.20;66.00
44215;DHT22;29884;47.450;19.124;2023-10-09T07:43:39;11.20;65.90
44215;DHT22;29884;47.450;19.124;2023-10-09T07:46:05;11.30;65.40
44215;DHT22;29884;47.450;19.124;2023-10-09T07:48:50;11.50;65.20
44215;DHT22;29884;47.450;19.124;2023-10-09T07:51:22;11.70;65.50
44215;DHT22;29884;47.450;19.124;2023-10-09T07:53:55;11.80;65.20
44215;DHT22;29884;47.450;19.124;2023-10-09T07:56:33;12.20;64.30
44215;DHT22;29884;47.450;19.124;2023-10-09T07:59:05;12.00;63.10
44215;DHT22;29884;47.450;19.124;2023-10-09T08:01:40;11.90;61.30
44215;DHT22;29884;47.450;19.124;2023-10-09T08:04:21;11.90;63.10
44215;DHT22;29884;47.450;19.124;2023-10-09T08:07:23;11.80;62.60
44215;DHT22;29884;47.450;19.124;2023-10-09T08:09:52;11.70;61.60
44215;DHT22;29884;47.450;19.124;2023-10-09T08:12:37;11.60;61.70
44215;DHT22;29884;47.450;19.124;2023-10-09T08:15:12;11.60;63.50
44215;DHT22;29884;47.450;19.124;2023-10-09T08:17:54;11.70;64.30
44215;DHT22;29884;47.450;19.124;2023-10-09T08:20:27;11.70;64.30
44215;DHT22;29884;47.450;19.124;2023-10-09T08:23:02;11.70;63.30
44215;DHT22;29884;47.450;19.124;2023-10-09T08:25:30;11.70;63.10
44215;DHT22;29884;47.450;19.124;2023-10-09T08:28:02;11.60;62.50
44215;DHT22;29884;47.450;19.124;2023-10-09T08:30:40;11.60;63.70
44215;DHT22;29884;47.450;19.124;2023-10-09T08:33:14;11.70;63.60
44215;DHT22;29884;47.450;19.124;2023-10-09T08:35:53;11.70;63.80
44215;DHT22;29884;47.450;19.124;2023-10-09T08:38:24;11.90;64.10
44215;DHT22;29884;47.450;19.124;2023-10-09T08:40:52;12.00;64.10
44215;DHT22;29884;47.450;19.124;2023-10-09T08:43:23;12.20;63.90
44215;DHT22;29884;47.450;19.124;2023-10-09T08:45:57;12.10;62.50
44215;DHT22;29884;47.450;19.124;2023-10-09T08:48:30;12.00;63.80
44215;DHT22;29884;47.450;19.124;2023-10-09T08:50:56;12.20;62.90
44215;DHT22;29884;47.450;19.124;2023-10-09T08:53:23;12.20;62.70
44215;DHT22;29884;47.450;19.124;2023-10-09T08:55:50;12.20;60.50
44215;DHT22;29884;47.450;19.124;2023-10-09T08:58:17;12.30;60.20
44215;DHT22;29884;47.450;19.124;2023-10-09T09:00:51;12.40;59.80
44215;DHT22;29884;47.450;19.124;2023-10-09T09:03:20;12.50;61.30
44215;DHT22;29884;47.450;19.124;2023-10-09T09:06:01;12.40;59.10
44215;DHT22;29884;47.450;19.124;2023-10-09T09:08:29;12.40;58.70
44215;DHT22;29884;47.450;19.124;2023-10-09T09:11:04;12.40;58.10
44215;DHT22;29884;47.450;19.124;2023-10-09T09:14:00;12.40;59.00
44215;DHT22;29884;47.450;19.124;2023-10-09T09:16:41;12.60;59.70
44215;DHT22;29884;47.450;19.124;2023-10-09T09:19:10;12.70;58.90
44215;DHT22;29884;47.450;19.124;2023-10-09T09:21:37;12.70;57.80
44215;DHT22;29884;47.450;19.124;2023-10-09T09:24:11;12.80;58.20
44215;DHT22;29884;47.450;19.124;2023-10-09T09:27:01;13.20;57.90
44215;DHT22;29884;47.450;19.124;2023-10-09T09:29:46;13.50;56.40
44215;DHT22;29884;47.450;19.124;2023-10-09T09:32:27;13.50;56.50
44215;DHT22;29884;47.450;19.124;2023-10-09T09:35:01;13.80;55.70
44215;DHT22;29884;47.450;19.124;2023-10-09T09:37:35;13.70;54.90
44215;DHT22;29884;47.450;19.124;2023-10-09T09:40:18;14.00;55.10
44215;DHT22;29884;47.450;19.124;2023-10-09T09:42:59;14.10;54.00
44215;DHT22;29884;47.450;19.124;2023-10-09T09:45:38;14.00;53.40
44215;DHT22;29884;47.450;19.124;2023-10-09T09:48:12;14.20;53.50
44215;DHT22;29884;47.450;19.124;2023-10-09T09:50:42;14.40;53.10
44215;DHT22;29884;47.450;19.124;2023-10-09T09:53:15;14.30;52.80
44215;DHT22;29884;47.450;19.124;2023-10-09T09:55:52;14.30;53.30
44215;DHT22;29884;47.450;19.124;2023-10-09T09:58:23;14.20;52.90
44215;DHT22;29884;47.450;19.124;2023-10-09T10:00:53;14.40;53.20
44215;DHT22;29884;47.450;19.124;2023-10-09T10:03:28;14.40;53.10
44215;DHT22;29884;47.450;19.124;2023-10-09T10:05:59;14.50;52.50
44215;DHT22;29884;47.450;19.124;2023-10-09T10:08:30;14.70;51.50
44215;DHT22;29884;47.450;19.124;2023-10-09T10:10:59;14.60;50.80
44215;DHT22;29884;47.450;19.124;2023-10-09T10:16:11;15.10;50.30
44215;DHT22;29884;47.450;19.124;2023-10-09T10:18:58;15.00;50.60
44215;DHT22;29884;47.450;19.124;2023-10-09T10:21:36;15.20;49.50
44215;DHT22;29884;47.450;19.124;2023-10-09T10:29:44;14.90;51.50
44215;DHT22;29884;47.450;19.124;2023-10-09T10:32:15;14.70;50.80
44215;DHT22;29884;47.450;19.124;2023-10-09T10:37:33;14.30;51.70
44215;DHT22;29884;47.450;19.124;2023-10-09T10:40:05;14.30;52.40
44215;DHT22;29884;47.450;19.124;2023-10-09T10:42:48;14.60;52.10
44215;DHT22;29884;47.450;19.124;2023-10-09T10:45:35;14.80;52.10
44215;DHT22;29884;47.450;19.124;2023-10-09T10:48:02;14.40;50.90
44215;DHT22;29884;47.450;19.124;2023-10-09T10:50:32;14.40;52.00
44215;DHT22;29884;47.450;19.124;2023-10-09T10:53:27;14.80;52.40
44215;DHT22;29884;47.450;19.124;2023-10-09T10:56:01;15.00;51.70
44215;DHT22;29884;47.450;19.124;2023-10-09T10:58:57;15.10;50.60
44215;DHT22;29884;47.450;19.124;2023-10-09T11:01:35;15.00;50.60
44215;DHT22;29884;47.450;19.124;2023-10-09T11:04:22;14.80;51.00
44215;DHT22;29884;47.450;19.124;2023-10-09T11:07:04;14.70;51.40
44215;DHT22;29884;47.450;19.124;2023-10-09T11:09:53;14.90;51.00
44215;DHT22;29884;47.450;19.124;2023-10-09T11:12:41;15.40;52.00
44215;DHT22;29884;47.450;19.124;2023-10-09T11:15:09;15.60;50.10
44215;DHT22;29884;47.450;19.124;2023-10-09T11:20:31;16.30;50.10
44215;DHT22;29884;47.450;19.124;2023-10-09T11:23:00;16.10;48.60
44215;DHT22;29884;47.450;19.124;2023-10-09T11:25:40;16.10;49.70
44215;DHT22;29884;47.450;19.124;2023-10-09T11:28:25;16.10;49.80
44215;DHT22;29884;47.450;19.124;2023-10-09T11:31:15;15.80;49.50
44215;DHT22;29884;47.450;19.124;2023-10-09T11:33:48;15.70;50.10
44215;DHT22;29884;47.450;19.124;2023-10-09T11:36:15;15.70;49.30
44215;DHT22;29884;47.450;19.124;2023-10-09T11:38:41;16.00;49.70
44215;DHT22;29884;47.450;19.124;2023-10-09T11:41:19;16.00;49.50
44215;DHT22;29884;47.450;19.124;2023-10-09T11:43:52;16.00;50.10
44215;DHT22;29884;47.450;19.124;2023-10-09T11:46:23;16.30;50.30
44215;DHT22;29884;47.450;19.124;2023-10-09T11:49:14;16.60;49.90
44215;DHT22;29884;47.450;19.124;2023-10-09T11:52:07;17.00;49.60
44215;DHT22;29884;47.450;19.124;2023-10-09T11:54:38;16.50;48.50
44215;DHT22;29884;47.450;19.124;2023-10-09T11:57:04;16.30;50.30
44215;DHT22;29884;47.450;19.124;2023-10-09T11:59:31;15.90;50.10
44215;DHT22;29884;47.450;19.124;2023-10-09T12:02:07;15.90;50.20
44215;DHT22;29884;47.450;19.124;2023-10-09T12:04:42;16.30;50.60
44215;DHT22;29884;47.450;19.124;2023-10-09T12:07:08;16.50;50.10
44215;DHT22;29884;47.450;19.124;2023-10-09T12:09:38;16.30;49.20
44215;DHT22;29884;47.450;19.124;2023-10-09T12:12:07;16.20;50.60
44215;DHT22;29884;47.450;19.124;2023-10-09T12:14:33;15.90;51.40
44215;DHT22;29884;47.450;19.124;2023-10-09T12:17:01;15.80;55.00
44215;DHT22;29884;47.450;19.124;2023-10-09T12:19:38;15.60;56.40
44215;DHT22;29884;47.450;19.124;2023-10-09T12:22:07;15.60;58.70
44215;DHT22;29884;47.450;19.124;2023-10-09T12:24:36;15.50;59.80
44215;DHT22;29884;47.450;19.124;2023-10-09T12:27:03;15.60;59.50
44215;DHT22;29884;47.450;19.124;2023-10-09T12:29:35;15.60;57.50
44215;DHT22;29884;47.450;19.124;2023-10-09T12:32:01;15.60;59.20
44215;DHT22;29884;47.450;19.124;2023-10-09T12:34:28;15.60;61.00
44215;DHT22;29884;47.450;19.124;2023-10-09T12:36:57;15.60;60.40
44215;DHT22;29884;47.450;19.124;2023-10-09T12:39:27;15.50;59.20
44215;DHT22;29884;47.450;19.124;2023-10-09T12:41:59;15.50;59.50
44215;DHT22;29884;47.450;19.124;2023-10-09T12:44:32;15.40;60.20
44215;DHT22;29884;47.450;19.124;2023-10-09T12:47:05;15.50;60.10
44215;DHT22;29884;47.450;19.124;2023-10-09T12:49:31;15.50;63.80
44215;DHT22;29884;47.450;19.124;2023-10-09T12:51:57;15.50;62.50
44215;DHT22;29884;47.450;19.124;2023-10-09T12:54:25;15.50;63.50
44215;DHT22;29884;47.450;19.124;2023-10-09T12:56:56;15.40;62.20
44215;DHT22;29884;47.450;19.124;2023-10-09T12:59:24;15.40;63.50
44215;DHT22;29884;47.450;19.124;2023-10-09T13:01:50;15.40;65.20
44215;DHT22;29884;47.450;19.124;2023-10-09T13:04:23;15.50;67.20
44215;DHT22;29884;47.450;19.124;2023-10-09T13:06:49;15.30;66.70
44215;DHT22;29884;47.450;19.124;2023-10-09T13:09:20;15.40;67.90
44215;DHT22;29884;47.450;19.124;2023-10-09T13:12:00;15.40;66.90
44215;DHT22;29884;47.450;19.124;2023-10-09T13:14:31;15.40;70.60
44215;DHT22;29884;47.450;19.124;2023-10-09T13:16:59;15.50;72.10
44215;DHT22;29884;47.450;19.124;2023-10-09T13:19:25;15.40;70.00
44215;DHT22;29884;47.450;19.124;2023-10-09T13:21:51;15.30;70.00
44215;DHT22;29884;47.450;19.124;2023-10-09T13:24:17;15.30;69.40
44215;DHT22;29884;47.450;19.124;2023-10-09T13:26:43;15.30;70.30
44215;DHT22;29884;47.450;19.124;2023-10-09T13:29:12;15.20;70.60
44215;DHT22;29884;47.450;19.124;2023-10-09T13:31:38;15.10;73.20
44215;DHT22;29884;47.450;19.124;2023-10-09T13:34:05;15.10;77.10
44215;DHT22;29884;47.450;19.124;2023-10-09T13:36:41;14.90;78.50
44215;DHT22;29884;47.450;19.124;2023-10-09T13:39:10;14.90;81.70
44215;DHT22;29884;47.450;19.124;2023-10-09T13:41:56;14.90;83.20
44215;DHT22;29884;47.450;19.124;2023-10-09T13:47:00;14.80;90.40
44215;DHT22;29884;47.450;19.124;2023-10-09T13:49:27;14.70;92.10
44215;DHT22;29884;47.450;19.124;2023-10-09T13:51:59;14.60;92.10
44215;DHT22;29884;47.450;19.124;2023-10-09T13:54:27;14.50;95.00
44215;DHT22;29884;47.450;19.124;2023-10-09T13:57:02;14.30;99.50
44215;DHT22;29884;47.450;19.124;2023-10-09T13:59:35;14.10;99.90
44215;DHT22;29884;47.450;19.124;2023-10-09T14:02:01;14.00;99.90
44215;DHT22;29884;47.450;19.124;2023-10-09T14:04:34;14.00;99.90
44215;DHT22;29884;47.450;19.124;2023-10-09T14:07:00;14.10;99.90
44215;DHT22;29884;47.450;19.124;2023-10-09T14:09:28;14.00;99.90
44215;DHT22;29884;47.450;19.124;2023-10-09T14:12:00;14.10;99.90
44215;DHT22;29884;47.450;19.124;2023-10-09T14:14:43;13.90;99.90
44215;DHT22;29884;47.450;19.124;2023-10-09T14:17:15;13.70;99.90
44215;DHT22;29884;47.450;19.124;2023-10-09T14:19:47;13.70;99.90
44215;DHT22;29884;47.450;19.124;2023-10-09T14:22:17;13.60;99.90
44215;DHT22;29884;47.450;19.124;2023-10-09T14:24:46;13.60;99.90
44215;DHT22;29884;47.450;19.124;2023-10-09T14:27:15;13.60;99.90
44215;DHT22;29884;47.450;19.124;2023-10-09T14:29:47;13.60;99.90
44215;DHT22;29884;47.450;19.124;2023-10-09T14:32:14;13.60;99.90
44215;DHT22;29884;47.450;19.124;2023-10-09T14:34:41;13.60;99.90
44215;DHT22;29884;47.450;19.124;2023-10-09T14:37:17;13.60;99.90
44215;DHT22;29884;47.450;19.124;2023-10-09T14:39:44;13.60;99.90
44215;DHT22;29884;47.450;19.124;2023-10-09T14:42:17;13.50;99.90
44215;DHT22;29884;47.450;19.124;2023-10-09T14:44:44;13.40;99.90
44215;DHT22;29884;47.450;19.124;2023-10-09T14:47:13;13.30;99.90
44215;DHT22;29884;47.450;19.124;2023-10-09T14:49:42;13.20;99.90
44215;DHT22;29884;47.450;19.124;2023-10-09T14:52:12;13.40;99.90
44215;DHT22;29884;47.450;19.124;2023-10-09T14:54:42;13.40;99.90
44215;DHT22;29884;47.450;19.124;2023-10-09T14:57:08;13.50;99.90
44215;DHT22;29884;47.450;19.124;2023-10-09T14:59:37;13.40;99.90
44215;DHT22;29884;47.450;19.124;2023-10-09T15:02:03;13.40;99.90
44215;DHT22;29884;47.450;19.124;2023-10-09T15:04:31;13.40;99.90
44215;DHT22;29884;47.450;19.124;2023-10-09T15:06:57;13.30;99.90
44215;DHT22;29884;47.450;19.124;2023-10-09T15:09:23;13.30;99.90
44215;DHT22;29884;47.450;19.124;2023-10-09T15:11:50;13.20;99.90
44215;DHT22;29884;47.450;19.124;2023-10-09T15:14:16;13.10;99.90
44215;DHT22;29884;47.450;19.124;2023-10-09T15:16:44;13.10;99.90
44215;DHT22;29884;47.450;19.124;2023-10-09T15:19:12;13.10;99.90
44215;DHT22;29884;47.450;19.124;2023-10-09T15:21:38;13.20;99.90
44215;DHT22;29884;47.450;19.124;2023-10-09T15:24:16;13.20;99.90
44215;DHT22;29884;47.450;19.124;2023-10-09T15:26:46;13.20;99.90
44215;DHT22;29884;47.450;19.124;2023-10-09T15:29:19;13.10;99.90
44215;DHT22;29884;47.450;19.124;2023-10-09T15:31:49;13.10;99.90
44215;DHT22;29884;47.450;19.124;2023-10-09T15:34:18;13.10;99.90
44215;DHT22;29884;47.450;19.124;2023-10-09T15:36:46;13.10;99.90
44215;DHT22;29884;47.450;19.124;2023-10-09T15:39:15;13.10;99.90
44215;DHT22;29884;47.450;19.124;2023-10-09T15:41:45;13.10;99.90
44215;DHT22;29884;47.450;19.124;2023-10-09T15:44:11;13.10;99.90
44215;DHT22;29884;47.450;19.124;2023-10-09T15:46:39;13.00;99.90
44215;DHT22;29884;47.450;19.124;2023-10-09T15:49:05;13.00;99.90
44215;DHT22;29884;47.450;19.124;2023-10-09T15:51:35;13.00;99.90
44215;DHT22;29884;47.450;19.124;2023-10-09T15:54:00;13.00;99.90
44215;DHT22;29884;47.450;19.124;2023-10-09T15:56:26;13.00;99.90
44215;DHT22;29884;47.450;19.124;2023-10-09T15:58:52;12.90;99.90
44215;DHT22;29884;47.450;19.124;2023-10-09T16:01:22;13.00;99.90
44215;DHT22;29884;47.450;19.124;2023-10-09T16:03:49;12.90;99.90
44215;DHT22;29884;47.450;19.124;2023-10-09T16:06:16;12.90;99.90
44215;DHT22;29884;47.450;19.124;2023-10-09T16:08:47;12.90;99.90
44215;DHT22;29884;47.450;19.124;2023-10-09T16:11:19;12.90;99.90
44215;DHT22;29884;47.450;19.124;2023-10-09T16:13:52;12.90;99.90
44215;DHT22;29884;47.450;19.124;2023-10-09T16:16:28;12.90;99.90
44215;DHT22;29884;47.450;19.124;2023-10-09T16:18:54;12.80;99.90